Albion, Michigan
Current Conditions -  °F | °C
As of 3:33 PM on Friday 21 Nov 2014 (Local Time) from KRMY Reporting Station
Clear Clear  
Wind Chill: -8°   Ceiling: Unl
Heat Index: -4°   Visibility: 10mi
Dew Point: -11°   Wind: 7mph
Humidity: 58%   Direction: 210°SSW
Pressure: 30.39"   Gusts: NA
Location:  42.25°N, 84.75°W
Report Text: KRMY 212033Z AUTO 21006KT 10SM CLR M04/M11 A3039 RMK AO2 T10371110
Loading
Personal Weather Stations






























Interactive Weather Map New forecast layout! Learn more

10-Day Weather Forecast

Advertisements
Track Severe Weather on mobile